sensor_id;sensor_type;location;lat;lon;timestamp;pressure;altitude;pressure_sealevel;temperature;humidity
74065;BME280;62421;51.412;5.432;2023-03-14T00:02:18;98875.88;;;10.68;90.02
74065;BME280;62421;51.412;5.432;2023-03-14T00:04:44;98877.19;;;10.63;90.22
74065;BME280;62421;51.412;5.432;2023-03-14T00:07:13;98877.19;;;10.63;90.00
74065;BME280;62421;51.412;5.432;2023-03-14T00:09:38;98875.47;;;10.62;90.01
74065;BME280;62421;51.412;5.432;2023-03-14T00:12:04;98874.13;;;10.58;90.16
74065;BME280;62421;51.412;5.432;2023-03-14T00:14:31;98878.97;;;10.55;90.26
74065;BME280;62421;51.412;5.432;2023-03-14T00:16:57;98874.56;;;10.54;89.35
74065;BME280;62421;51.412;5.432;2023-03-14T00:19:22;98890.84;;;10.52;89.19
74065;BME280;62421;51.412;5.432;2023-03-14T00:21:47;98885.63;;;10.51;88.02
74065;BME280;62421;51.412;5.432;2023-03-14T00:24:13;98891.16;;;10.49;87.04
74065;BME280;62421;51.412;5.432;2023-03-14T00:26:39;98898.13;;;10.42;87.30
74065;BME280;62421;51.412;5.432;2023-03-14T00:29:04;98892.06;;;10.40;86.10
74065;BME280;62421;51.412;5.432;2023-03-14T00:31:29;98908.94;;;10.32;86.26
74065;BME280;62421;51.412;5.432;2023-03-14T00:33:56;98891.59;;;10.27;85.84
74065;BME280;62421;51.412;5.432;2023-03-14T00:36:22;98909.13;;;10.21;84.35
74065;BME280;62421;51.412;5.432;2023-03-14T00:38:50;98897.41;;;10.22;83.69
74065;BME280;62421;51.412;5.432;2023-03-14T00:41:18;98917.31;;;10.19;83.91
74065;BME280;62421;51.412;5.432;2023-03-14T00:43:45;98897.63;;;10.11;84.61
74065;BME280;62421;51.412;5.432;2023-03-14T00:46:11;98905.66;;;10.11;84.89
74065;BME280;62421;51.412;5.432;2023-03-14T00:48:36;98901.16;;;10.11;84.53
74065;BME280;62421;51.412;5.432;2023-03-14T00:51:05;98918.66;;;10.15;84.94
74065;BME280;62421;51.412;5.432;2023-03-14T00:53:30;98902.97;;;10.11;85.21
74065;BME280;62421;51.412;5.432;2023-03-14T00:55:56;98901.78;;;10.05;84.88
74065;BME280;62421;51.412;5.432;2023-03-14T00:58:21;98905.28;;;10.05;84.82
74065;BME280;62421;51.412;5.432;2023-03-14T01:00:47;98907.88;;;9.97;85.60
74065;BME280;62421;51.412;5.432;2023-03-14T01:03:13;98902.13;;;9.92;86.40
74065;BME280;62421;51.412;5.432;2023-03-14T01:05:39;98918.38;;;9.91;86.38
74065;BME280;62421;51.412;5.432;2023-03-14T01:08:06;98906.66;;;9.92;85.91
74065;BME280;62421;51.412;5.432;2023-03-14T01:10:32;98918.06;;;9.94;85.47
74065;BME280;62421;51.412;5.432;2023-03-14T01:12:58;98914.38;;;9.95;85.02
74065;BME280;62421;51.412;5.432;2023-03-14T01:15:24;98908.72;;;9.98;85.38
74065;BME280;62421;51.412;5.432;2023-03-14T01:17:49;98904.22;;;9.98;85.34
74065;BME280;62421;51.412;5.432;2023-03-14T01:20:16;98898.84;;;9.98;85.08
74065;BME280;62421;51.412;5.432;2023-03-14T01:22:42;98902.22;;;10.00;85.60
74065;BME280;62421;51.412;5.432;2023-03-14T01:25:14;98898.69;;;10.00;85.32
74065;BME280;62421;51.412;5.432;2023-03-14T01:27:40;98895.03;;;10.01;85.25
74065;BME280;62421;51.412;5.432;2023-03-14T01:30:06;98887.97;;;10.00;85.27
74065;BME280;62421;51.412;5.432;2023-03-14T01:32:33;98876.25;;;10.01;85.19
74065;BME280;62421;51.412;5.432;2023-03-14T01:34:58;98870.19;;;9.99;85.30
74065;BME280;62421;51.412;5.432;2023-03-14T01:37:23;98872.88;;;9.99;85.79
74065;BME280;62421;51.412;5.432;2023-03-14T01:39:49;98871.03;;;9.99;85.71
74065;BME280;62421;51.412;5.432;2023-03-14T01:42:15;98865.53;;;10.01;85.46
74065;BME280;62421;51.412;5.432;2023-03-14T01:44:52;98861.00;;;10.01;85.95
74065;BME280;62421;51.412;5.432;2023-03-14T01:47:18;98847.44;;;10.03;85.54
74065;BME280;62421;51.412;5.432;2023-03-14T01:49:46;98852.13;;;10.01;85.39
74065;BME280;62421;51.412;5.432;2023-03-14T01:54:51;98856.09;;;9.97;85.78
74065;BME280;62421;51.412;5.432;2023-03-14T01:57:33;98859.94;;;9.94;86.41
74065;BME280;62421;51.412;5.432;2023-03-14T02:00:08;98852.59;;;9.96;86.50
74065;BME280;62421;51.412;5.432;2023-03-14T02:02:38;98846.06;;;9.99;86.26
74065;BME280;62421;51.412;5.432;2023-03-14T02:05:05;98845.06;;;10.00;86.50
74065;BME280;62421;51.412;5.432;2023-03-14T02:07:39;98848.28;;;10.03;86.75
74065;BME280;62421;51.412;5.432;2023-03-14T02:10:07;98841.25;;;10.02;87.02
74065;BME280;62421;51.412;5.432;2023-03-14T02:12:33;98842.91;;;10.03;87.02
74065;BME280;62421;51.412;5.432;2023-03-14T02:14:59;98842.91;;;10.03;87.23
74065;BME280;62421;51.412;5.432;2023-03-14T02:17:25;98842.91;;;10.03;87.75
74065;BME280;62421;51.412;5.432;2023-03-14T02:22:24;98838.56;;;10.02;88.29
74065;BME280;62421;51.412;5.432;2023-03-14T02:25:07;98829.97;;;9.99;88.84
74065;BME280;62421;51.412;5.432;2023-03-14T02:27:34;98832.81;;;9.97;89.57
74065;BME280;62421;51.412;5.432;2023-03-14T02:30:08;98825.78;;;9.96;89.84
74065;BME280;62421;51.412;5.432;2023-03-14T02:32:38;98829.44;;;9.95;89.84
74065;BME280;62421;51.412;5.432;2023-03-14T02:35:10;98832.09;;;9.95;90.39
74065;BME280;62421;51.412;5.432;2023-03-14T02:37:41;98833.25;;;9.93;90.76
74065;BME280;62421;51.412;5.432;2023-03-14T02:40:09;98836.97;;;9.92;90.97
74065;BME280;62421;51.412;5.432;2023-03-14T02:42:35;98829.06;;;9.90;91.48
74065;BME280;62421;51.412;5.432;2023-03-14T02:47:37;98805.53;;;9.84;91.49
74065;BME280;62421;51.412;5.432;2023-03-14T02:50:10;98811.03;;;9.82;91.46
74065;BME280;62421;51.412;5.432;2023-03-14T02:52:37;98805.84;;;9.81;91.64
74065;BME280;62421;51.412;5.432;2023-03-14T02:55:03;98819.25;;;9.81;91.74
74065;BME280;62421;51.412;5.432;2023-03-14T02:57:29;98813.91;;;9.81;91.94
74065;BME280;62421;51.412;5.432;2023-03-14T02:59:58;98821.75;;;9.82;91.87
74065;BME280;62421;51.412;5.432;2023-03-14T03:02:23;98824.44;;;9.82;92.04
74065;BME280;62421;51.412;5.432;2023-03-14T03:04:49;98814.72;;;9.81;91.98
74065;BME280;62421;51.412;5.432;2023-03-14T03:07:14;98823.75;;;9.80;92.03
74065;BME280;62421;51.412;5.432;2023-03-14T03:09:39;98828.13;;;9.81;91.76
74065;BME280;62421;51.412;5.432;2023-03-14T03:12:05;98827.28;;;9.81;91.91
74065;BME280;62421;51.412;5.432;2023-03-14T03:14:30;98830.25;;;9.78;91.73
74065;BME280;62421;51.412;5.432;2023-03-14T03:16:56;98828.41;;;9.78;91.90
74065;BME280;62421;51.412;5.432;2023-03-14T03:19:21;98819.69;;;9.76;92.09
74065;BME280;62421;51.412;5.432;2023-03-14T03:21:46;98816.03;;;9.77;91.67
74065;BME280;62421;51.412;5.432;2023-03-14T03:24:12;98810.13;;;9.74;91.91
74065;BME280;62421;51.412;5.432;2023-03-14T03:26:37;98815.66;;;9.72;91.93
74065;BME280;62421;51.412;5.432;2023-03-14T03:29:03;98823.84;;;9.71;91.78
74065;BME280;62421;51.412;5.432;2023-03-14T03:31:28;98813.25;;;9.69;91.45
74065;BME280;62421;51.412;5.432;2023-03-14T03:33:54;98822.31;;;9.68;91.73
74065;BME280;62421;51.412;5.432;2023-03-14T03:36:23;98810.72;;;9.68;91.28
74065;BME280;62421;51.412;5.432;2023-03-14T03:38:49;98815.25;;;9.67;91.51
74065;BME280;62421;51.412;5.432;2023-03-14T03:41:15;98818.94;;;9.66;91.57
74065;BME280;62421;51.412;5.432;2023-03-14T03:43:40;98812.88;;;9.64;91.83
74065;BME280;62421;51.412;5.432;2023-03-14T03:46:07;98809.66;;;9.60;91.53
74065;BME280;62421;51.412;5.432;2023-03-14T03:48:32;98806.72;;;9.54;91.29
74065;BME280;62421;51.412;5.432;2023-03-14T03:50:58;98801.41;;;9.44;92.05
74065;BME280;62421;51.412;5.432;2023-03-14T03:53:24;98801.47;;;9.34;92.16
74065;BME280;62421;51.412;5.432;2023-03-14T03:55:49;98795.88;;;9.28;92.11
74065;BME280;62421;51.412;5.432;2023-03-14T03:58:14;98800.81;;;9.22;92.58
74065;BME280;62421;51.412;5.432;2023-03-14T04:00:40;98801.13;;;9.19;93.00
74065;BME280;62421;51.412;5.432;2023-03-14T04:03:05;98797.44;;;9.20;93.64
74065;BME280;62421;51.412;5.432;2023-03-14T04:05:31;98795.09;;;9.17;93.46
74065;BME280;62421;51.412;5.432;2023-03-14T04:07:57;98790.88;;;9.15;94.06
74065;BME280;62421;51.412;5.432;2023-03-14T04:10:22;98796.22;;;9.15;94.74
74065;BME280;62421;51.412;5.432;2023-03-14T04:12:48;98800.56;;;9.16;94.89
74065;BME280;62421;51.412;5.432;2023-03-14T04:15:13;98794.25;;;9.17;95.58
74065;BME280;62421;51.412;5.432;2023-03-14T04:17:38;98809.31;;;9.18;95.92
74065;BME280;62421;51.412;5.432;2023-03-14T04:20:04;98794.13;;;9.18;96.71
74065;BME280;62421;51.412;5.432;2023-03-14T04:22:30;98794.78;;;9.20;97.48
74065;BME280;62421;51.412;5.432;2023-03-14T04:24:55;98797.44;;;9.20;97.92
74065;BME280;62421;51.412;5.432;2023-03-14T04:27:20;98788.91;;;9.17;98.66
74065;BME280;62421;51.412;5.432;2023-03-14T04:29:46;98785.38;;;9.16;98.79
74065;BME280;62421;51.412;5.432;2023-03-14T04:32:11;98785.38;;;9.16;99.16
74065;BME280;62421;51.412;5.432;2023-03-14T04:34:37;98790.19;;;9.13;99.86
74065;BME280;62421;51.412;5.432;2023-03-14T04:37:02;98780.63;;;9.10;100.00
74065;BME280;62421;51.412;5.432;2023-03-14T04:39:28;98778.78;;;9.11;100.00
74065;BME280;62421;51.412;5.432;2023-03-14T04:41:53;98777.78;;;9.12;100.00
74065;BME280;62421;51.412;5.432;2023-03-14T04:44:19;98776.09;;;9.11;100.00
74065;BME280;62421;51.412;5.432;2023-03-14T04:46:44;98771.03;;;9.08;100.00
74065;BME280;62421;51.412;5.432;2023-03-14T04:49:09;98778.22;;;9.07;100.00
74065;BME280;62421;51.412;5.432;2023-03-14T04:51:35;98773.69;;;9.08;100.00
74065;BME280;62421;51.412;5.432;2023-03-14T04:54:00;98777.69;;;9.04;100.00
74065;BME280;62421;51.412;5.432;2023-03-14T04:56:26;98782.50;;;9.00;100.00
74065;BME280;62421;51.412;5.432;2023-03-14T04:58:52;98771.09;;;8.98;100.00
74065;BME280;62421;51.412;5.432;2023-03-14T05:01:18;98772.75;;;8.99;100.00
74065;BME280;62421;51.412;5.432;2023-03-14T05:03:43;98769.09;;;9.00;100.00
74065;BME280;62421;51.412;5.432;2023-03-14T05:06:09;98772.63;;;9.00;100.00
74065;BME280;62421;51.412;5.432;2023-03-14T05:08:34;98770.94;;;8.99;100.00
74065;BME280;62421;51.412;5.432;2023-03-14T05:11:00;98778.41;;;8.96;100.00
74065;BME280;62421;51.412;5.432;2023-03-14T05:13:25;98781.94;;;8.96;100.00
74065;BME280;62421;51.412;5.432;2023-03-14T05:15:51;98776.56;;;8.96;100.00
74065;BME280;62421;51.412;5.432;2023-03-14T05:18:17;98762.34;;;8.96;100.00
74065;BME280;62421;51.412;5.432;2023-03-14T05:20:42;98777.59;;;8.95;100.00
74065;BME280;62421;51.412;5.432;2023-03-14T05:23:10;98766.69;;;8.97;100.00
74065;BME280;62421;51.412;5.432;2023-03-14T05:25:35;98766.56;;;8.98;100.00
74065;BME280;62421;51.412;5.432;2023-03-14T05:28:01;98764.59;;;9.00;100.00
74065;BME280;62421;51.412;5.432;2023-03-14T05:30:26;98762.91;;;8.99;100.00
74065;BME280;62421;51.412;5.432;2023-03-14T05:32:53;98763.06;;;8.98;100.00
74065;BME280;62421;51.412;5.432;2023-03-14T05:35:19;98757.56;;;8.99;100.00
74065;BME280;62421;51.412;5.432;2023-03-14T05:37:44;98761.78;;;9.02;100.00
74065;BME280;62421;51.412;5.432;2023-03-14T05:40:10;98751.19;;;9.00;100.00
74065;BME280;62421;51.412;5.432;2023-03-14T05:42:36;98749.66;;;8.98;100.00
74065;BME280;62421;51.412;5.432;2023-03-14T05:45:01;98752.47;;;8.96;100.00
74065;BME280;62421;51.412;5.432;2023-03-14T05:47:27;98744.44;;;8.96;100.00
74065;BME280;62421;51.412;5.432;2023-03-14T05:49:53;98761.34;;;8.97;100.00
74065;BME280;62421;51.412;5.432;2023-03-14T05:52:18;98749.66;;;8.98;100.00
74065;BME280;62421;51.412;5.432;2023-03-14T05:54:43;98751.34;;;8.99;100.00
74065;BME280;62421;51.412;5.432;2023-03-14T05:57:09;98744.31;;;8.98;100.00
74065;BME280;62421;51.412;5.432;2023-03-14T05:59:34;98748.84;;;8.97;100.00
74065;BME280;62421;51.412;5.432;2023-03-14T06:02:00;98745.28;;;8.97;100.00
74065;BME280;62421;51.412;5.432;2023-03-14T06:04:26;98744.44;;;8.96;100.00
74065;BME280;62421;51.412;5.432;2023-03-14T06:06:51;98739.09;;;8.96;100.00
74065;BME280;62421;51.412;5.432;2023-03-14T06:09:16;98745.28;;;8.97;100.00
74065;BME280;62421;51.412;5.432;2023-03-14T06:11:44;98737.25;;;8.97;100.00
74065;BME280;62421;51.412;5.432;2023-03-14T06:14:11;98747.81;;;8.98;100.00
74065;BME280;62421;51.412;5.432;2023-03-14T06:16:36;98746.84;;;8.99;100.00
74065;BME280;62421;51.412;5.432;2023-03-14T06:19:01;98746.53;;;9.02;100.00
74065;BME280;62421;51.412;5.432;2023-03-14T06:21:27;98740.03;;;9.05;100.00
74065;BME280;62421;51.412;5.432;2023-03-14T06:23:52;98749.59;;;9.08;100.00
74065;BME280;62421;51.412;5.432;2023-03-14T06:26:17;98751.31;;;9.09;100.00
74065;BME280;62421;51.412;5.432;2023-03-14T06:28:43;98746.78;;;9.09;100.00
74065;BME280;62421;51.412;5.432;2023-03-14T06:31:08;98742.25;;;9.10;100.00
74065;BME280;62421;51.412;5.432;2023-03-14T06:33:34;98751.00;;;9.12;100.00
74065;BME280;62421;51.412;5.432;2023-03-14T06:35:59;98755.06;;;9.16;100.00
74065;BME280;62421;51.412;5.432;2023-03-14T06:38:24;98749.25;;;9.20;100.00
74065;BME280;62421;51.412;5.432;2023-03-14T06:40:50;98756.56;;;9.28;100.00
74065;BME280;62421;51.412;5.432;2023-03-14T06:43:15;98749.59;;;9.35;100.00
74065;BME280;62421;51.412;5.432;2023-03-14T06:45:41;98751.66;;;9.41;100.00
74065;BME280;62421;51.412;5.432;2023-03-14T06:48:06;98756.13;;;9.51;100.00
74065;BME280;62421;51.412;5.432;2023-03-14T06:50:31;98762.41;;;9.59;100.00
74065;BME280;62421;51.412;5.432;2023-03-14T06:52:57;98762.88;;;9.73;100.00
74065;BME280;62421;51.412;5.432;2023-03-14T06:55:22;98765.69;;;9.89;100.00
74065;BME280;62421;51.412;5.432;2023-03-14T06:57:47;98764.78;;;9.98;100.00
74065;BME280;62421;51.412;5.432;2023-03-14T07:00:13;98769.84;;;10.01;100.00
74065;BME280;62421;51.412;5.432;2023-03-14T07:02:39;98776.03;;;10.02;100.00
74065;BME280;62421;51.412;5.432;2023-03-14T07:05:05;98777.19;;;9.99;100.00
74065;BME280;62421;51.412;5.432;2023-03-14T07:07:31;98777.34;;;9.98;100.00
74065;BME280;62421;51.412;5.432;2023-03-14T07:09:56;98786.38;;;9.97;100.00
74065;BME280;62421;51.412;5.432;2023-03-14T07:12:23;98785.69;;;9.95;100.00
74065;BME280;62421;51.412;5.432;2023-03-14T07:14:48;98783.00;;;9.95;100.00
74065;BME280;62421;51.412;5.432;2023-03-14T07:17:13;98785.84;;;9.93;100.00
74065;BME280;62421;51.412;5.432;2023-03-14T07:19:39;98794.06;;;9.92;100.00
74065;BME280;62421;51.412;5.432;2023-03-14T07:22:05;98803.09;;;9.91;100.00
74065;BME280;62421;51.412;5.432;2023-03-14T07:24:30;98798.72;;;9.90;100.00
74065;BME280;62421;51.412;5.432;2023-03-14T07:26:56;98805.38;;;9.86;100.00
74065;BME280;62421;51.412;5.432;2023-03-14T07:29:21;98812.34;;;9.78;100.00
74065;BME280;62421;51.412;5.432;2023-03-14T07:31:46;98812.28;;;9.70;100.00
74065;BME280;62421;51.412;5.432;2023-03-14T07:34:12;98829.84;;;9.55;100.00
74065;BME280;62421;51.412;5.432;2023-03-14T07:36:37;98844.44;;;9.42;100.00
74065;BME280;62421;51.412;5.432;2023-03-14T07:39:03;98881.28;;;9.31;100.00
74065;BME280;62421;51.412;5.432;2023-03-14T07:41:30;98916.75;;;9.05;100.00
74065;BME280;62421;51.412;5.432;2023-03-14T07:43:55;98926.97;;;8.63;100.00
74065;BME280;62421;51.412;5.432;2023-03-14T07:46:20;98936.88;;;8.21;100.00
74065;BME280;62421;51.412;5.432;2023-03-14T07:48:46;98945.03;;;8.00;100.00
74065;BME280;62421;51.412;5.432;2023-03-14T07:51:11;98972.09;;;7.76;100.00
74065;BME280;62421;51.412;5.432;2023-03-14T07:53:36;98985.03;;;7.41;100.00
74065;BME280;62421;51.412;5.432;2023-03-14T07:56:02;98990.50;;;7.18;100.00
74065;BME280;62421;51.412;5.432;2023-03-14T07:58:27;98987.78;;;7.08;100.00
74065;BME280;62421;51.412;5.432;2023-03-14T08:00:53;99003.41;;;6.92;100.00
74065;BME280;62421;51.412;5.432;2023-03-14T08:03:18;99008.41;;;6.85;100.00
74065;BME280;62421;51.412;5.432;2023-03-14T08:05:47;99009.63;;;6.81;100.00
74065;BME280;62421;51.412;5.432;2023-03-14T08:08:13;99016.53;;;6.84;100.00
74065;BME280;62421;51.412;5.432;2023-03-14T08:10:38;99032.53;;;6.84;100.00
74065;BME280;62421;51.412;5.432;2023-03-14T08:13:03;99038.25;;;6.79;100.00
74065;BME280;62421;51.412;5.432;2023-03-14T08:15:30;99045.88;;;6.84;100.00
74065;BME280;62421;51.412;5.432;2023-03-14T08:17:55;99052.53;;;6.89;100.00
74065;BME280;62421;51.412;5.432;2023-03-14T08:20:24;99062.50;;;6.87;100.00
74065;BME280;62421;51.412;5.432;2023-03-14T08:22:50;99085.41;;;6.90;100.00
74065;BME280;62421;51.412;5.432;2023-03-14T08:25:16;99087.31;;;6.99;100.00
74065;BME280;62421;51.412;5.432;2023-03-14T08:27:42;99096.16;;;7.00;100.00
74065;BME280;62421;51.412;5.432;2023-03-14T08:30:10;99102.00;;;6.93;100.00
74065;BME280;62421;51.412;5.432;2023-03-14T08:32:36;99095.66;;;7.06;100.00
74065;BME280;62421;51.412;5.432;2023-03-14T08:35:03;99128.47;;;6.85;100.00
74065;BME280;62421;51.412;5.432;2023-03-14T08:37:31;99134.63;;;6.97;100.00
74065;BME280;62421;51.412;5.432;2023-03-14T08:39:56;99142.81;;;6.73;100.00
74065;BME280;62421;51.412;5.432;2023-03-14T08:42:21;99152.03;;;6.57;100.00
74065;BME280;62421;51.412;5.432;2023-03-14T08:44:47;99166.94;;;6.60;100.00
74065;BME280;62421;51.412;5.432;2023-03-14T08:47:12;99177.88;;;6.57;100.00
74065;BME280;62421;51.412;5.432;2023-03-14T08:49:38;99175.22;;;6.57;100.00
74065;BME280;62421;51.412;5.432;2023-03-14T08:52:05;99197.38;;;6.57;100.00
74065;BME280;62421;51.412;5.432;2023-03-14T08:54:31;99198.34;;;6.68;100.00
74065;BME280;62421;51.412;5.432;2023-03-14T08:56:57;99200.53;;;6.74;100.00
74065;BME280;62421;51.412;5.432;2023-03-14T08:59:23;99203.66;;;6.79;100.00
74065;BME280;62421;51.412;5.432;2023-03-14T09:01:48;99212.41;;;6.70;100.00
74065;BME280;62421;51.412;5.432;2023-03-14T09:04:14;99224.19;;;6.67;100.00
74065;BME280;62421;51.412;5.432;2023-03-14T09:06:40;99233.03;;;6.68;100.00
74065;BME280;62421;51.412;5.432;2023-03-14T09:09:05;99238.63;;;6.65;100.00
74065;BME280;62421;51.412;5.432;2023-03-14T09:11:30;99244.19;;;6.62;100.00
74065;BME280;62421;51.412;5.432;2023-03-14T09:13:56;99262.84;;;6.62;100.00
74065;BME280;62421;51.412;5.432;2023-03-14T09:16:22;99268.28;;;6.60;100.00
74065;BME280;62421;51.412;5.432;2023-03-14T09:18:47;99267.34;;;6.61;100.00
74065;BME280;62421;51.412;5.432;2023-03-14T09:21:13;99280.66;;;6.72;100.00
74065;BME280;62421;51.412;5.432;2023-03-14T09:23:39;99285.41;;;6.80;100.00
74065;BME280;62421;51.412;5.432;2023-03-14T09:26:05;99295.94;;;6.82;100.00
74065;BME280;62421;51.412;5.432;2023-03-14T09:28:31;99306.88;;;6.90;100.00
74065;BME280;62421;51.412;5.432;2023-03-14T09:30:57;99300.31;;;6.94;100.00
74065;BME280;62421;51.412;5.432;2023-03-14T09:33:23;99311.84;;;6.94;100.00
74065;BME280;62421;51.412;5.432;2023-03-14T09:35:48;99323.25;;;6.96;100.00
74065;BME280;62421;51.412;5.432;2023-03-14T09:38:14;99324.69;;;7.01;100.00
74065;BME280;62421;51.412;5.432;2023-03-14T09:40:40;99349.56;;;7.01;100.00
74065;BME280;62421;51.412;5.432;2023-03-14T09:43:10;99356.59;;;7.02;100.00
74065;BME280;62421;51.412;5.432;2023-03-14T09:45:39;99348.97;;;6.97;100.00
74065;BME280;62421;51.412;5.432;2023-03-14T09:48:08;99373.56;;;6.90;100.00
74065;BME280;62421;51.412;5.432;2023-03-14T09:50:43;99391.75;;;6.73;100.00
74065;BME280;62421;51.412;5.432;2023-03-14T09:53:13;99421.88;;;6.51;100.00
74065;BME280;62421;51.412;5.432;2023-03-14T09:55:39;99433.16;;;6.20;100.00
74065;BME280;62421;51.412;5.432;2023-03-14T09:58:13;99441.91;;;6.22;100.00
74065;BME280;62421;51.412;5.432;2023-03-14T10:00:39;99457.31;;;5.92;100.00
74065;BME280;62421;51.412;5.432;2023-03-14T10:05:30;99486.38;;;5.46;100.00
74065;BME280;62421;51.412;5.432;2023-03-14T10:07:55;99510.03;;;5.38;100.00
74065;BME280;62421;51.412;5.432;2023-03-14T10:10:23;99523.03;;;5.04;100.00
74065;BME280;62421;51.412;5.432;2023-03-14T10:13:01;99537.44;;;4.74;100.00
74065;BME280;62421;51.412;5.432;2023-03-14T10:15:31;99542.22;;;4.82;100.00
74065;BME280;62421;51.412;5.432;2023-03-14T10:18:00;99556.34;;;4.69;100.00
74065;BME280;62421;51.412;5.432;2023-03-14T10:20:30;99572.75;;;4.76;100.00
74065;BME280;62421;51.412;5.432;2023-03-14T10:25:35;99594.84;;;5.04;100.00
74065;BME280;62421;51.412;5.432;2023-03-14T10:28:03;99601.28;;;5.27;100.00
74065;BME280;62421;51.412;5.432;2023-03-14T10:35:57;99632.09;;;5.57;100.00
74065;BME280;62421;51.412;5.432;2023-03-14T10:38:31;99647.00;;;5.59;100.00
74065;BME280;62421;51.412;5.432;2023-03-14T10:40:57;99650.22;;;5.64;100.00
74065;BME280;62421;51.412;5.432;2023-03-14T10:43:43;99662.56;;;5.65;100.00
74065;BME280;62421;51.412;5.432;2023-03-14T10:46:13;99669.69;;;5.52;100.00
74065;BME280;62421;51.412;5.432;2023-03-14T10:48:40;99679.09;;;5.58;100.00
74065;BME280;62421;51.412;5.432;2023-03-14T10:51:29;99690.91;;;5.53;100.00
74065;BME280;62421;51.412;5.432;2023-03-14T10:54:03;99698.97;;;5.52;100.00
74065;BME280;62421;51.412;5.432;2023-03-14T10:56:37;99702.72;;;5.62;100.00
74065;BME280;62421;51.412;5.432;2023-03-14T10:59:07;99711.34;;;5.53;100.00
74065;BME280;62421;51.412;5.432;2023-03-14T11:01:47;99721.81;;;5.69;100.00
74065;BME280;62421;51.412;5.432;2023-03-14T11:10:00;99762.22;;;5.36;100.00
74065;BME280;62421;51.412;5.432;2023-03-14T11:15:02;99782.97;;;5.16;100.00
74065;BME280;62421;51.412;5.432;2023-03-14T11:17:44;99794.97;;;5.09;100.00
74065;BME280;62421;51.412;5.432;2023-03-14T11:20:38;99806.06;;;5.16;100.00
74065;BME280;62421;51.412;5.432;2023-03-14T11:23:14;99808.66;;;5.03;100.00
74065;BME280;62421;51.412;5.432;2023-03-14T11:25:54;99811.91;;;5.08;100.00
74065;BME280;62421;51.412;5.432;2023-03-14T11:28:29;99818.38;;;5.04;100.00
74065;BME280;62421;51.412;5.432;2023-03-14T11:31:07;99828.88;;;5.05;100.00
74065;BME280;62421;51.412;5.432;2023-03-14T11:33:52;99844.53;;;5.24;100.00
74065;BME280;62421;51.412;5.432;2023-03-14T11:36:27;99837.66;;;5.49;100.00
74065;BME280;62421;51.412;5.432;2023-03-14T11:38:56;99843.75;;;5.51;100.00
74065;BME280;62421;51.412;5.432;2023-03-14T11:41:28;99847.84;;;5.42;100.00
74065;BME280;62421;51.412;5.432;2023-03-14T11:43:57;99858.91;;;5.36;100.00
74065;BME280;62421;51.412;5.432;2023-03-14T11:46:29;99869.63;;;5.34;100.00
74065;BME280;62421;51.412;5.432;2023-03-14T11:49:11;99891.38;;;5.41;100.00
74065;BME280;62421;51.412;5.432;2023-03-14T11:51:40;99905.00;;;5.22;100.00
74065;BME280;62421;51.412;5.432;2023-03-14T11:54:15;99915.47;;;4.97;100.00
74065;BME280;62421;51.412;5.432;2023-03-14T11:56:52;99945.38;;;4.86;100.00
74065;BME280;62421;51.412;5.432;2023-03-14T12:04:26;99941.78;;;4.12;100.00
74065;BME280;62421;51.412;5.432;2023-03-14T12:07:02;99945.13;;;4.16;100.00
74065;BME280;62421;51.412;5.432;2023-03-14T12:09:31;99947.44;;;4.36;100.00
74065;BME280;62421;51.412;5.432;2023-03-14T12:12:00;99954.63;;;4.50;100.00
74065;BME280;62421;51.412;5.432;2023-03-14T12:14:31;99967.78;;;4.67;100.00
74065;BME280;62421;51.412;5.432;2023-03-14T12:17:06;99982.13;;;4.79;100.00
74065;BME280;62421;51.412;5.432;2023-03-14T12:19:35;99981.91;;;4.98;100.00
74065;BME280;62421;51.412;5.432;2023-03-14T12:24:35;100001.78;;;5.21;100.00
74065;BME280;62421;51.412;5.432;2023-03-14T12:27:04;99982.78;;;5.27;100.00
74065;BME280;62421;51.412;5.432;2023-03-14T12:29:30;99992.94;;;5.35;100.00
74065;BME280;62421;51.412;5.432;2023-03-14T12:32:32;100005.97;;;5.40;100.00
74065;BME280;62421;51.412;5.432;2023-03-14T12:35:07;100009.28;;;5.15;100.00
74065;BME280;62421;51.412;5.432;2023-03-14T12:37:52;100007.47;;;5.15;100.00
74065;BME280;62421;51.412;5.432;2023-03-14T12:40:31;100014.13;;;5.22;100.00
74065;BME280;62421;51.412;5.432;2023-03-14T12:43:00;100010.94;;;5.31;100.00
74065;BME280;62421;51.412;5.432;2023-03-14T12:45:36;100011.84;;;5.16;100.00
74065;BME280;62421;51.412;5.432;2023-03-14T12:48:22;100018.81;;;5.19;100.00
74065;BME280;62421;51.412;5.432;2023-03-14T12:51:02;100024.50;;;5.12;100.00
74065;BME280;62421;51.412;5.432;2023-03-14T12:56:49;100032.66;;;5.09;100.00
74065;BME280;62421;51.412;5.432;2023-03-14T13:02:41;100042.25;;;4.98;100.00
74065;BME280;62421;51.412;5.432;2023-03-14T13:05:37;100044.19;;;5.10;100.00
74065;BME280;62421;51.412;5.432;2023-03-14T13:10:30;100073.88;;;5.02;100.00
74065;BME280;62421;51.412;5.432;2023-03-14T13:15:39;100064.09;;;5.03;100.00
74065;BME280;62421;51.412;5.432;2023-03-14T13:18:38;100070.09;;;5.06;100.00
74065;BME280;62421;51.412;5.432;2023-03-14T13:23:39;100072.03;;;5.19;89.38
74065;BME280;62421;51.412;5.432;2023-03-14T13:26:11;100092.22;;;5.37;86.97
74065;BME280;62421;51.412;5.432;2023-03-14T13:28:38;100090.50;;;5.50;83.63
74065;BME280;62421;51.412;5.432;2023-03-14T13:31:04;100089.09;;;5.59;80.99
74065;BME280;62421;51.412;5.432;2023-03-14T13:33:32;100099.00;;;5.57;79.82
74065;BME280;62421;51.412;5.432;2023-03-14T13:36:03;100101.94;;;5.67;78.33
74065;BME280;62421;51.412;5.432;2023-03-14T13:38:31;100109.75;;;5.84;74.15
74065;BME280;62421;51.412;5.432;2023-03-14T13:41:04;100108.50;;;5.75;78.19
74065;BME280;62421;51.412;5.432;2023-03-14T13:43:40;100123.75;;;5.88;73.37
74065;BME280;62421;51.412;5.432;2023-03-14T13:46:12;100132.13;;;5.82;70.96
74065;BME280;62421;51.412;5.432;2023-03-14T13:48:50;100128.31;;;5.86;66.51
74065;BME280;62421;51.412;5.432;2023-03-14T13:51:19;100140.31;;;5.79;64.95
74065;BME280;62421;51.412;5.432;2023-03-14T13:53:48;100146.88;;;5.73;70.66
74065;BME280;62421;51.412;5.432;2023-03-14T13:56:15;100149.72;;;5.84;69.21